Flight Track Log - Related Links

Times and Time Zones

All times are in EDT time to prevent confusion due to time zone crossing. See the N319EE flight status page for this flight to view local times or setup timezone preferences in your user account.

Time Position Orientation Groundspeed Altitude Reporting Facility
EDT Latitude Longitude Course Direction KTS MPH feet Rate Location/Type
Tue 02:29:22 PM 42.2814 -75.9486 69° East 185 213 4,300  Level Boston Center
Tue 02:30:23 PM 42.3011 -75.8778 69° East 190 219 6,100 1,776 Climbing Boston Center
Tue 02:31:27 PM 42.3206 -75.8058 70° East 202 232 8,000 1,728 Climbing Boston Center
Tue 02:32:28 PM 42.3383 -75.7344 71° East 202 232 9,700 1,587 Climbing Boston Center
Tue 02:33:28 PM 42.3581 -75.6611 70° East 206 237 11,200 1,500 Climbing Boston Center
Tue 02:34:32 PM 42.3819 -75.5658 71° East 220 253 12,800 871 Climbing Boston Center
Tue 02:35:32 PM 42.4044 -75.4789 71° East 240 276 13,000 99 Climbing Boston Center
Tue 02:36:33 PM 42.3983 -75.3767 95° East 281 323 13,000  Level Boston Center
Tue 02:37:33 PM 42.3650 -75.2772 114° Southeast 291 335 13,000  Level Boston Center
Tue 02:38:35 PM 42.3303 -75.1728 114° Southeast 300 345 13,000  Level Boston Center
Tue 02:39:38 PM 42.2972 -75.0792 115° Southeast 287 330 13,000  Level Boston Center
Tue 02:40:39 PM 42.2631 -74.9858 116° Southeast 280 322 13,000  Level Boston Center
Tue 02:41:40 PM 42.2219 -74.8689 115° Southeast 286 329 13,000  Level Boston Center
Tue 02:42:40 PM 42.1875 -74.7733 116° Southeast 286 329 13,000  Level Boston Center
Tue 02:43:44 PM 42.1542 -74.6742 114° Southeast 289 333 13,000  Level Boston Center
Tue 02:44:44 PM 42.1200 -74.5764 115° Southeast 289 333 13,000  Level Boston Center
Tue 02:45:45 PM 42.0847 -74.4800 116° Southeast 290 334 13,000  Level Boston Center
Tue 02:46:46 PM 42.0472 -74.3747 116° Southeast 294 338 13,000  Level Boston Center
Tue 02:47:49 PM 42.0094 -74.2700 116° Southeast 293 337 13,000  Level Boston Center
Tue 02:48:50 PM 41.9750 -74.1717 115° Southeast 292 336 13,000  Level Boston Center
Tue 02:49:51 PM 41.9408 -74.0744 115° Southeast 290 334 13,000  Level Boston Center
Tue 02:50:54 PM 41.9031 -73.9708 116° Southeast 287 330 13,000  Level Boston Center
Tue 02:51:55 PM 41.8681 -73.8742 116° Southeast 287 330 13,000  Level Boston Center
Tue 02:52:55 PM 41.8172 -73.7953 131° Southeast 286 329 13,000 -397 Level Boston Center
Tue 02:53:56 PM 41.7561 -73.7283 141° Southeast 284 327 12,200 -1,584 Descending Boston Center
Tue 02:55:00 PM 41.6869 -73.6508 140° Southeast 299 344 9,700 -1,984 Descending Boston Center
Tue 02:56:00 PM 41.6264 -73.5850 141° Southeast 284 327 8,100 -1,550 Descending Boston Center
Tue 02:57:00 PM 41.5675 -73.5211 141° Southeast 274 315 6,600 -1,355 Descending Boston Center
Tue 02:58:04 PM 41.5083 -73.4603 142° Southeast 269 310 5,300 -796 Descending Boston Center
Tue 03:00:16 PM 41.3833 -73.3333 143° Southeast 247 284 4,000 -394 Descending New TRACON
Tue 03:01:22 PM 41.3167 -73.2667 143° Southeast 243 280 4,000  Level New TRACON
Tue 03:02:22 PM 41.2667 -73.2167 143° Southeast 240 276 4,000  Level New TRACON
Tue 03:03:22 PM 41.2000 -73.1667 151° Southeast 244 281 4,000  Level New TRACON
Tue 03:04:22 PM 41.1500 -73.1167 143° Southeast 244 281 4,000  Level New TRACON
Tue 03:05:23 PM 41.1000 -73.0500 135° Southeast 244 281 4,000  Level New TRACON
Tue 03:06:23 PM 41.0500 -73.0000 143° Southeast 248 285 4,000  Level New TRACON
Tue 03:07:22 PM 41.0000 -73.0500 217° Southwest 229 264 4,000 -158 Level New TRACON
Tue 03:08:17 PM 40.9667 -73.1000 229° Southwest 235 270 3,700 -496 Descending New TRACON
Tue 03:09:23 PM 40.9000 -73.1667 217° Southwest 249 287 3,000 -333 Descending New TRACON
Tue 03:10:23 PM 40.8500 -73.2333 225° Southwest 232 267 3,000  Level New TRACON
Tue 03:11:23 PM 40.8167 -73.2833 229° Southwest 227 261 3,000  Level New TRACON
Tue 03:12:23 PM 40.7500 -73.3333 210° Southwest 229 264 3,000 -550 Level New TRACON
Tue 03:13:23 PM 40.7000 -73.3167 166° South 238 274 1,900 -650 Descending New TRACON
Tue 03:14:23 PM 40.6833 -73.3500 237° Southwest 215 247 1,700 -706 Descending New TRACON
Tue 03:15:22 PM 40.7167 -73.3833 323° Northwest 145 167 500 -1,220 Descending New TRACON
Tue 03:17:00 PM 40.7167 -73.4000 311° West  Level FlightAware

Login

Don't have an account? Register now (free) for customized features, flight alerts, and more!